createdAt,value
2019-05-20T00:00:44.023Z,99.90
2019-05-20T00:03:12.541Z,99.90
2019-05-20T00:05:41.132Z,99.90
2019-05-20T00:08:09.562Z,99.90
2019-05-20T00:10:38.017Z,99.90
2019-05-20T00:13:06.453Z,99.90
2019-05-20T00:15:35.825Z,99.90
2019-05-20T00:18:04.272Z,99.90
2019-05-20T00:20:32.737Z,99.90
2019-05-20T00:23:01.250Z,99.90
2019-05-20T00:25:29.729Z,99.90
2019-05-20T00:27:58.493Z,99.90
2019-05-20T00:30:27.281Z,99.90
2019-05-20T00:32:55.777Z,99.90
2019-05-20T00:35:24.560Z,99.90
2019-05-20T00:37:53.010Z,99.90
2019-05-20T00:40:21.510Z,99.90
2019-05-20T00:42:50.233Z,99.90
2019-05-20T00:45:19.118Z,99.90
2019-05-20T00:47:47.558Z,99.90
2019-05-20T00:50:16.140Z,99.90
2019-05-20T00:52:44.590Z,99.90
2019-05-20T00:55:25.233Z,99.90
2019-05-20T00:57:53.745Z,99.90
2019-05-20T01:00:23.111Z,99.90
2019-05-20T01:02:57.050Z,99.90
2019-05-20T01:05:22.330Z,99.90
2019-05-20T01:07:51.693Z,99.90
2019-05-20T01:10:20.124Z,99.90
2019-05-20T01:12:49.350Z,99.90
2019-05-20T01:15:18.322Z,99.90
2019-05-20T01:17:46.769Z,99.90
2019-05-20T01:20:15.627Z,99.90
2019-05-20T01:22:44.114Z,99.90
2019-05-20T01:25:13.406Z,99.90
2019-05-20T01:27:42.202Z,99.90
2019-05-20T01:30:12.938Z,99.90
2019-05-20T01:32:41.372Z,99.90
2019-05-20T01:35:11.951Z,99.90
2019-05-20T01:37:59.745Z,99.90
2019-05-20T01:40:28.469Z,99.90
2019-05-20T01:42:56.913Z,99.90
2019-05-20T01:45:26.385Z,99.90
2019-05-20T01:47:54.857Z,99.90
2019-05-20T01:50:23.318Z,99.90
2019-05-20T01:52:51.760Z,99.90
2019-05-20T01:55:20.501Z,99.90
2019-05-20T01:57:49.014Z,99.90
2019-05-20T02:00:18.813Z,99.90
2019-05-20T02:02:47.257Z,99.90
2019-05-20T02:05:15.949Z,99.90
2019-05-20T02:07:44.480Z,99.90
2019-05-20T02:10:13.398Z,99.90
2019-05-20T02:12:41.852Z,99.90
2019-05-20T02:15:27.937Z,99.90
2019-05-20T02:17:56.385Z,99.90
2019-05-20T02:20:30.948Z,99.90
2019-05-20T02:23:18.106Z,99.90
2019-05-20T02:25:47.975Z,99.90
2019-05-20T02:28:16.760Z,99.90
2019-05-20T02:30:45.228Z,99.90
2019-05-20T02:33:13.995Z,99.90
2019-05-20T02:35:43.399Z,99.90
2019-05-20T02:38:11.864Z,99.90
2019-05-20T02:40:40.831Z,99.90
2019-05-20T02:43:10.200Z,99.90
2019-05-20T02:45:38.666Z,99.90
2019-05-20T02:48:07.411Z,99.90
2019-05-20T02:50:36.792Z,99.90
2019-05-20T02:53:05.609Z,99.90
2019-05-20T02:55:34.401Z,99.90
2019-05-20T02:58:02.849Z,99.90
2019-05-20T03:00:31.292Z,99.90
2019-05-20T03:02:59.746Z,99.90
2019-05-20T03:05:28.558Z,99.90
2019-05-20T03:07:57.014Z,99.90
2019-05-20T03:10:25.731Z,99.90
2019-05-20T03:12:54.227Z,99.90
2019-05-20T03:15:22.664Z,99.90
2019-05-20T03:17:51.390Z,99.90
2019-05-20T03:20:20.181Z,99.90
2019-05-20T03:22:48.620Z,99.90
2019-05-20T03:25:17.213Z,99.90
2019-05-20T03:27:45.661Z,99.90
2019-05-20T03:30:14.477Z,99.90
2019-05-20T03:32:43.334Z,99.90
2019-05-20T03:35:13.755Z,99.90
2019-05-20T03:37:43.362Z,99.90
2019-05-20T03:40:12.251Z,99.90
2019-05-20T03:42:41.046Z,99.90
2019-05-20T03:45:10.362Z,99.90
2019-05-20T03:47:38.825Z,99.90
2019-05-20T03:50:29.142Z,99.90
2019-05-20T03:52:57.928Z,99.90
2019-05-20T03:55:26.444Z,99.90
2019-05-20T03:57:54.903Z,99.90
2019-05-20T04:00:38.202Z,99.90
2019-05-20T04:03:07.568Z,99.90
2019-05-20T04:05:36.420Z,99.90
2019-05-20T04:08:05.203Z,99.90
2019-05-20T04:10:33.646Z,99.90
2019-05-20T04:13:02.116Z,99.90
2019-05-20T04:15:30.870Z,99.90
2019-05-20T04:17:59.333Z,99.90
2019-05-20T04:20:28.030Z,99.90
2019-05-20T04:22:56.493Z,99.90
2019-05-20T04:25:24.922Z,99.90
2019-05-20T04:27:53.645Z,99.90
2019-05-20T04:30:22.081Z,99.90
2019-05-20T04:32:50.872Z,99.90
2019-05-20T04:35:23.008Z,99.90
2019-05-20T04:37:49.833Z,99.90
2019-05-20T04:40:18.349Z,99.90
2019-05-20T04:42:46.803Z,99.90
2019-05-20T04:45:15.685Z,99.90
2019-05-20T04:47:44.455Z,99.90
2019-05-20T04:50:14.376Z,99.90
2019-05-20T04:52:42.902Z,99.90
2019-05-20T04:55:11.592Z,99.90
2019-05-20T04:57:40.993Z,99.90
2019-05-20T05:00:10.321Z,99.90
2019-05-20T05:02:42.620Z,99.90
2019-05-20T05:05:10.113Z,99.90
2019-05-20T05:07:39.893Z,99.90
2019-05-20T05:10:10.608Z,99.90
2019-05-20T05:12:39.051Z,99.90
2019-05-20T05:15:11.185Z,99.90
2019-05-20T05:17:39.667Z,99.90
2019-05-20T05:20:17.715Z,99.90
2019-05-20T05:22:39.199Z,99.90
2019-05-20T05:25:08.130Z,99.90
2019-05-20T05:27:36.568Z,99.90
2019-05-20T05:30:07.450Z,99.90
2019-05-20T05:32:55.257Z,99.90
2019-05-20T05:35:25.580Z,99.90
2019-05-20T05:37:54.166Z,99.90
2019-05-20T05:40:25.872Z,99.90
2019-05-20T05:42:54.614Z,99.90
2019-05-20T05:45:31.505Z,99.90
2019-05-20T05:48:00.184Z,99.90
2019-05-20T05:50:28.818Z,99.90
2019-05-20T05:52:57.336Z,99.90
2019-05-20T05:55:26.557Z,99.90
2019-05-20T05:57:55.019Z,99.90
2019-05-20T06:00:23.941Z,99.90
2019-05-20T06:02:52.398Z,99.90
2019-05-20T06:05:20.882Z,99.90
2019-05-20T06:07:49.381Z,99.90
2019-05-20T06:10:19.329Z,99.90
2019-05-20T06:12:47.806Z,99.90
2019-05-20T06:15:16.620Z,99.90
2019-05-20T06:17:45.141Z,99.90
2019-05-20T06:20:14.428Z,99.90
2019-05-20T06:22:43.294Z,99.90
2019-05-20T06:25:13.186Z,99.90
2019-05-20T06:27:42.002Z,99.90
2019-05-20T06:30:12.510Z,99.90
2019-05-20T06:32:41.414Z,99.90
2019-05-20T06:35:11.301Z,99.90
2019-05-20T06:37:51.472Z,99.90
2019-05-20T06:40:20.289Z,99.90
2019-05-20T06:42:48.767Z,99.90
2019-05-20T06:45:17.209Z,99.50
2019-05-20T06:47:45.646Z,99.00
2019-05-20T06:50:14.829Z,98.30
2019-05-20T06:52:44.187Z,98.00
2019-05-20T06:55:13.134Z,97.70
2019-05-20T06:57:41.573Z,98.60
2019-05-20T07:00:11.138Z,98.00
2019-05-20T07:02:39.614Z,97.60
2019-05-20T07:05:09.022Z,96.90
2019-05-20T07:07:37.469Z,97.00
2019-05-20T07:10:08.703Z,96.90
2019-05-20T07:12:40.984Z,97.70
2019-05-20T07:15:08.128Z,97.60
2019-05-20T07:17:37.001Z,96.70
2019-05-20T07:20:06.670Z,96.50
2019-05-20T07:22:53.851Z,96.70
2019-05-20T07:25:07.555Z,96.40
2019-05-20T07:27:36.019Z,96.90
2019-05-20T07:30:07.530Z,97.60
2019-05-20T07:32:37.009Z,97.60
2019-05-20T07:35:07.013Z,96.80
2019-05-20T07:37:35.896Z,96.00
2019-05-20T07:40:07.045Z,95.70
2019-05-20T07:42:35.504Z,94.10
2019-05-20T07:45:07.626Z,93.80
2019-05-20T07:47:36.589Z,94.10
2019-05-20T07:50:11.246Z,94.50
2019-05-20T07:52:39.865Z,94.00
2019-05-20T07:55:08.997Z,96.50
2019-05-20T07:57:40.497Z,96.50
2019-05-20T08:00:10.662Z,96.30
2019-05-20T08:02:39.634Z,95.10
2019-05-20T08:05:09.946Z,94.70
2019-05-20T08:07:51.133Z,94.80
2019-05-20T08:10:09.382Z,94.50
2019-05-20T08:12:37.830Z,95.20
2019-05-20T08:15:08.111Z,95.20
2019-05-20T08:17:37.972Z,93.40
2019-05-20T08:20:07.561Z,93.40
2019-05-20T08:22:36.024Z,94.00
2019-05-20T08:25:06.558Z,93.50
2019-05-20T08:27:35.120Z,93.00
2019-05-20T08:30:05.404Z,94.70
2019-05-20T08:32:33.902Z,94.20
2019-05-20T08:35:02.385Z,93.70
2019-05-20T08:37:44.398Z,94.00
2019-05-20T08:40:01.429Z,92.90
2019-05-20T08:42:29.929Z,92.70
2019-05-20T08:44:58.364Z,92.50
2019-05-20T08:47:28.818Z,92.00
2019-05-20T08:49:57.531Z,92.40
2019-05-20T08:52:26.088Z,94.00
2019-05-20T08:54:54.540Z,93.60
2019-05-20T08:57:22.981Z,93.20
2019-05-20T08:59:51.552Z,93.50
2019-05-20T09:02:22.004Z,92.50
2019-05-20T09:05:10.206Z,93.20
2019-05-20T09:07:38.656Z,93.70
2019-05-20T09:10:07.825Z,95.10
2019-05-20T09:12:36.281Z,97.50
2019-05-20T09:15:07.836Z,97.40
2019-05-20T09:17:39.024Z,98.00
2019-05-20T09:20:07.535Z,97.40
2019-05-20T09:22:36.045Z,97.20
2019-05-20T09:25:05.816Z,95.80
2019-05-20T09:27:35.305Z,95.90
2019-05-20T09:30:06.329Z,95.20
2019-05-20T09:32:35.742Z,94.60
2019-05-20T09:35:07.270Z,93.90
2019-05-20T09:37:35.803Z,93.60
2019-05-20T09:40:05.901Z,93.30
2019-05-20T09:42:34.349Z,93.60
2019-05-20T09:45:03.394Z,92.70
2019-05-20T09:47:32.147Z,91.70
2019-05-20T09:50:00.633Z,91.20
2019-05-20T09:52:29.090Z,91.80
2019-05-20T09:54:57.521Z,91.30
2019-05-20T09:57:27.692Z,91.00
2019-05-20T09:59:56.422Z,91.10
2019-05-20T10:02:35.013Z,91.50
2019-05-20T10:04:56.674Z,91.10
2019-05-20T10:07:25.142Z,93.40
2019-05-20T10:09:53.846Z,92.90
2019-05-20T10:12:22.316Z,92.80
2019-05-20T10:14:52.885Z,91.50
2019-05-20T10:17:21.022Z,92.10
2019-05-20T10:19:49.833Z,92.50
2019-05-20T10:22:18.634Z,91.40
2019-05-20T10:24:48.458Z,90.90
2019-05-20T10:27:18.836Z,90.80
2019-05-20T10:29:47.275Z,90.80
2019-05-20T10:32:16.725Z,91.30
2019-05-20T10:34:45.461Z,91.20
2019-05-20T10:37:14.267Z,91.30
2019-05-20T10:39:42.732Z,91.00
2019-05-20T10:42:12.099Z,90.50
2019-05-20T10:44:42.008Z,89.90
2019-05-20T10:47:10.666Z,87.80
2019-05-20T10:49:39.113Z,88.80
2019-05-20T10:52:07.817Z,87.10
2019-05-20T10:54:36.281Z,85.60
2019-05-20T10:57:05.103Z,84.80
2019-05-20T10:59:33.553Z,84.20
2019-05-20T11:02:02.009Z,84.00
2019-05-20T11:04:30.459Z,83.00
2019-05-20T11:06:59.251Z,83.50
2019-05-20T11:09:27.689Z,83.30
2019-05-20T11:11:56.121Z,79.60
2019-05-20T11:14:24.563Z,77.80
2019-05-20T11:16:53.286Z,75.70
2019-05-20T11:19:22.111Z,74.50
2019-05-20T11:21:50.566Z,73.20
2019-05-20T11:24:19.001Z,74.30
2019-05-20T11:26:47.470Z,73.50
2019-05-20T11:29:16.328Z,72.60
2019-05-20T11:31:44.769Z,71.10
2019-05-20T11:34:13.303Z,67.90
2019-05-20T11:36:41.735Z,68.40
2019-05-20T11:39:10.522Z,69.00
2019-05-20T11:41:52.957Z,68.00
2019-05-20T11:44:11.919Z,67.80
2019-05-20T11:46:39.445Z,68.30
2019-05-20T11:49:07.878Z,70.50
2019-05-20T11:51:36.369Z,73.50
2019-05-20T11:54:05.988Z,74.30
2019-05-20T11:56:34.734Z,75.00
2019-05-20T11:59:03.244Z,73.60
2019-05-20T12:01:31.959Z,74.20
2019-05-20T12:04:00.414Z,75.40
2019-05-20T12:06:29.157Z,75.20
2019-05-20T12:08:57.942Z,76.00
2019-05-20T12:11:26.516Z,76.60
2019-05-20T12:13:55.257Z,73.50
2019-05-20T12:16:23.724Z,72.30
2019-05-20T12:18:53.157Z,68.30
2019-05-20T12:21:21.636Z,68.00
2019-05-20T12:23:50.153Z,69.90
2019-05-20T12:26:22.312Z,72.20
2019-05-20T12:28:54.819Z,73.10
2019-05-20T12:31:23.293Z,74.50
2019-05-20T12:33:51.862Z,73.70
2019-05-20T12:36:20.637Z,74.80
2019-05-20T12:38:49.086Z,74.80
2019-05-20T12:41:18.049Z,74.40
2019-05-20T12:43:46.518Z,73.40
2019-05-20T12:46:15.019Z,74.00
2019-05-20T12:48:43.702Z,76.40
2019-05-20T12:51:14.478Z,78.00
2019-05-20T12:54:01.966Z,79.00
2019-05-20T12:56:30.767Z,78.00
2019-05-20T12:58:59.216Z,78.00
2019-05-20T13:01:27.788Z,79.60
2019-05-20T13:03:56.631Z,81.60
2019-05-20T13:06:25.110Z,83.90
2019-05-20T13:08:54.114Z,83.60
2019-05-20T13:11:22.546Z,81.50
2019-05-20T13:13:51.028Z,79.90
2019-05-20T13:16:19.881Z,80.40
2019-05-20T13:18:55.810Z,81.90
2019-05-20T13:21:19.309Z,82.80
2019-05-20T13:23:49.045Z,83.30
2019-05-20T13:26:18.026Z,81.50
2019-05-20T13:28:46.906Z,81.70
2019-05-20T13:31:15.482Z,81.20
2019-05-20T13:33:44.302Z,81.00
2019-05-20T13:36:13.005Z,80.70
2019-05-20T13:38:41.950Z,81.60
2019-05-20T13:41:10.765Z,81.10
2019-05-20T13:43:39.632Z,81.10
2019-05-20T13:46:08.413Z,81.40
2019-05-20T13:48:36.882Z,81.10
2019-05-20T13:51:05.333Z,81.60
2019-05-20T13:53:33.959Z,81.60
2019-05-20T13:56:02.393Z,82.10
2019-05-20T13:58:31.189Z,83.30
2019-05-20T14:00:59.627Z,82.80
2019-05-20T14:03:28.083Z,82.60
2019-05-20T14:05:56.525Z,81.10
2019-05-20T14:08:24.953Z,80.80
2019-05-20T14:11:03.783Z,78.40
2019-05-20T14:13:24.509Z,77.30
2019-05-20T14:15:52.941Z,78.70
2019-05-20T14:18:21.730Z,78.30
2019-05-20T14:20:50.447Z,77.70
2019-05-20T14:23:18.958Z,76.70
2019-05-20T14:25:47.458Z,75.40
2019-05-20T14:28:16.200Z,75.20
2019-05-20T14:30:45.748Z,76.00
2019-05-20T14:33:14.221Z,76.80
2019-05-20T14:35:42.988Z,76.80
2019-05-20T14:38:11.766Z,75.80
2019-05-20T14:40:40.630Z,77.10
2019-05-20T14:43:09.182Z,77.20
2019-05-20T14:45:37.964Z,77.60
2019-05-20T14:48:06.491Z,77.60
2019-05-20T14:50:34.979Z,76.80
2019-05-20T14:53:03.423Z,77.20
2019-05-20T14:55:41.846Z,78.20
2019-05-20T14:58:02.417Z,79.00
2019-05-20T15:00:30.909Z,80.40
2019-05-20T15:02:59.693Z,80.60
2019-05-20T15:05:28.503Z,80.50
2019-05-20T15:07:56.948Z,81.80
2019-05-20T15:10:25.389Z,82.90
2019-05-20T15:12:54.181Z,84.40
2019-05-20T15:15:22.633Z,85.30
2019-05-20T15:17:51.438Z,86.10
2019-05-20T15:20:19.964Z,86.50
2019-05-20T15:22:48.703Z,88.10
2019-05-20T15:25:17.506Z,88.60
2019-05-20T15:27:49.329Z,89.40
2019-05-20T15:30:17.653Z,89.60
2019-05-20T15:32:46.421Z,89.80
2019-05-20T15:35:15.312Z,89.70
2019-05-20T15:37:44.217Z,89.20
2019-05-20T15:40:13.802Z,89.80
2019-05-20T15:42:42.254Z,90.00
2019-05-20T15:45:11.442Z,88.90
2019-05-20T15:47:40.401Z,89.60
2019-05-20T15:50:10.817Z,90.10
2019-05-20T15:52:39.962Z,90.40
2019-05-20T15:55:08.743Z,90.60
2019-05-20T15:57:37.252Z,90.80
2019-05-20T16:00:08.051Z,91.10
2019-05-20T16:02:37.046Z,91.20
2019-05-20T16:05:06.705Z,91.40
2019-05-20T16:07:35.671Z,91.90
2019-05-20T16:10:04.931Z,92.30
2019-05-20T16:12:34.377Z,92.80
2019-05-20T16:15:03.980Z,93.30
2019-05-20T16:17:32.433Z,93.70
2019-05-20T16:20:01.289Z,94.20
2019-05-20T16:22:30.118Z,94.50
2019-05-20T16:24:58.748Z,95.20
2019-05-20T16:27:27.535Z,95.50
2019-05-20T16:30:06.053Z,95.90
2019-05-20T16:32:26.856Z,96.20
2019-05-20T16:34:55.654Z,96.60
2019-05-20T16:37:24.129Z,97.00
2019-05-20T16:39:53.145Z,97.80
2019-05-20T16:42:21.681Z,98.30
2019-05-20T16:44:50.239Z,99.90
2019-05-20T16:47:18.686Z,99.90
2019-05-20T16:49:47.129Z,99.90
2019-05-20T16:52:15.581Z,99.90
2019-05-20T16:54:44.046Z,99.90
2019-05-20T16:57:12.553Z,99.90
2019-05-20T16:59:41.339Z,99.90
2019-05-20T17:02:09.865Z,99.90
2019-05-20T17:04:38.705Z,99.90
2019-05-20T17:07:07.152Z,99.90
2019-05-20T17:09:35.600Z,99.90
2019-05-20T17:12:04.053Z,99.90
2019-05-20T17:14:32.513Z,99.90
2019-05-20T17:17:00.945Z,99.90
2019-05-20T17:19:29.392Z,99.90
2019-05-20T17:21:57.946Z,99.90
2019-05-20T17:24:26.385Z,99.90
2019-05-20T17:26:54.846Z,99.90
2019-05-20T17:29:23.344Z,99.90
2019-05-20T17:31:52.146Z,99.90
2019-05-20T17:34:20.942Z,99.90
2019-05-20T17:36:49.388Z,99.90
2019-05-20T17:39:18.336Z,99.90
2019-05-20T17:41:47.233Z,99.90
2019-05-20T17:44:15.749Z,99.90
2019-05-20T17:46:44.274Z,99.90
2019-05-20T17:49:13.085Z,99.90
2019-05-20T17:51:43.428Z,99.90
2019-05-20T17:54:12.134Z,99.90
2019-05-20T17:56:41.364Z,99.90
2019-05-20T17:59:29.165Z,99.90
2019-05-20T18:01:57.915Z,99.90
2019-05-20T18:04:26.718Z,99.90
2019-05-20T18:06:55.185Z,99.90
2019-05-20T18:09:25.489Z,99.90
2019-05-20T18:11:53.953Z,99.90
2019-05-20T18:14:22.698Z,99.90
2019-05-20T18:16:51.199Z,99.90
2019-05-20T18:19:20.997Z,99.90
2019-05-20T18:21:49.486Z,99.90
2019-05-20T18:24:17.957Z,99.90
2019-05-20T18:26:46.762Z,99.90
2019-05-20T18:29:15.206Z,99.90
2019-05-20T18:31:43.641Z,99.90
2019-05-20T18:34:12.153Z,99.90
2019-05-20T18:36:42.116Z,99.90
2019-05-20T18:39:10.558Z,99.90
2019-05-20T18:41:39.025Z,99.90
2019-05-20T18:44:07.828Z,99.90
2019-05-20T18:46:36.695Z,99.90
2019-05-20T18:49:05.923Z,99.90
2019-05-20T18:51:34.594Z,99.90
2019-05-20T18:54:03.062Z,99.90
2019-05-20T18:56:31.866Z,99.90
2019-05-20T18:59:00.314Z,99.90
2019-05-20T19:01:28.777Z,99.90
2019-05-20T19:03:57.236Z,99.90
2019-05-20T19:06:26.117Z,99.90
2019-05-20T19:08:54.906Z,99.90
2019-05-20T19:11:23.696Z,99.90
2019-05-20T19:13:52.551Z,99.90
2019-05-20T19:16:21.015Z,99.90
2019-05-20T19:18:49.969Z,99.90
2019-05-20T19:21:18.416Z,99.90
2019-05-20T19:24:06.453Z,99.90
2019-05-20T19:26:34.893Z,99.90
2019-05-20T19:29:03.418Z,99.90
2019-05-20T19:31:32.150Z,99.90
2019-05-20T19:34:00.943Z,99.90
2019-05-20T19:36:29.402Z,99.90
2019-05-20T19:38:57.882Z,99.90
2019-05-20T19:41:27.859Z,99.90
2019-05-20T19:43:56.722Z,99.90
2019-05-20T19:46:25.518Z,99.90
2019-05-20T19:48:53.965Z,99.90
2019-05-20T19:51:22.431Z,99.90
2019-05-20T19:53:51.278Z,99.90
2019-05-20T19:56:19.762Z,99.90
2019-05-20T19:58:48.346Z,99.90
2019-05-20T20:01:16.786Z,99.90
2019-05-20T20:03:45.314Z,99.90
2019-05-20T20:06:13.775Z,99.90
2019-05-20T20:08:42.502Z,99.90
2019-05-20T20:11:12.214Z,99.90
2019-05-20T20:13:40.665Z,99.90
2019-05-20T20:16:09.163Z,99.90
2019-05-20T20:18:37.981Z,99.90
2019-05-20T20:21:06.438Z,99.90
2019-05-20T20:23:35.271Z,99.90
2019-05-20T20:26:03.784Z,99.90
2019-05-20T20:28:32.545Z,99.90
2019-05-20T20:31:01.264Z,99.90
2019-05-20T20:33:30.420Z,99.90
2019-05-20T20:35:59.205Z,99.90
2019-05-20T20:38:27.687Z,99.90
2019-05-20T20:40:56.906Z,99.90
2019-05-20T20:43:25.908Z,99.90
2019-05-20T20:45:56.226Z,99.90
2019-05-20T20:48:24.665Z,99.90
2019-05-20T20:50:53.113Z,99.90
2019-05-20T20:53:23.084Z,99.90
2019-05-20T20:55:51.633Z,99.90
2019-05-20T20:58:20.083Z,99.90
2019-05-20T21:00:48.884Z,99.90
2019-05-20T21:03:17.967Z,99.90
2019-05-20T21:05:46.737Z,99.90
2019-05-20T21:08:15.172Z,99.90
2019-05-20T21:10:44.050Z,99.90
2019-05-20T21:13:12.581Z,99.90
2019-05-20T21:15:41.070Z,99.90
2019-05-20T21:18:09.718Z,99.90
2019-05-20T21:20:38.173Z,99.90
2019-05-20T21:23:06.689Z,99.90
2019-05-20T21:25:35.470Z,99.90
2019-05-20T21:28:05.253Z,99.90
2019-05-20T21:30:33.977Z,99.90
2019-05-20T21:33:09.095Z,99.90
2019-05-20T21:35:32.639Z,99.90
2019-05-20T21:38:01.077Z,99.90
2019-05-20T21:40:29.597Z,99.90
2019-05-20T21:42:58.534Z,99.90
2019-05-20T21:45:27.024Z,99.90
2019-05-20T21:47:58.092Z,99.90
2019-05-20T21:50:26.556Z,99.90
2019-05-20T21:52:55.265Z,99.90
2019-05-20T21:55:23.733Z,99.90
2019-05-20T21:57:52.182Z,99.90
2019-05-20T22:00:22.677Z,99.90
2019-05-20T22:02:51.173Z,99.90
2019-05-20T22:05:19.649Z,99.90
2019-05-20T22:07:48.086Z,99.90
2019-05-20T22:10:16.605Z,99.90
2019-05-20T22:12:45.389Z,99.90
2019-05-20T22:15:14.185Z,99.90
2019-05-20T22:17:42.973Z,99.90
2019-05-20T22:20:13.429Z,99.90
2019-05-20T22:22:43.590Z,99.90
2019-05-20T22:25:31.372Z,99.90
2019-05-20T22:27:59.825Z,99.90
2019-05-20T22:30:28.273Z,99.90
2019-05-20T22:32:56.702Z,99.90
2019-05-20T22:35:25.410Z,99.90
2019-05-20T22:37:54.200Z,99.90
2019-05-20T22:40:22.689Z,99.90
2019-05-20T22:42:51.474Z,99.90
2019-05-20T22:45:19.938Z,99.90
2019-05-20T22:47:48.361Z,99.90
2019-05-20T22:50:17.360Z,99.90
2019-05-20T22:52:46.060Z,99.90
2019-05-20T22:55:15.620Z,99.90
2019-05-20T22:57:45.564Z,99.90
2019-05-20T23:00:14.513Z,99.90
2019-05-20T23:02:43.356Z,99.90
2019-05-20T23:05:11.966Z,99.90
2019-05-20T23:07:40.469Z,99.90
2019-05-20T23:10:10.005Z,99.90
2019-05-20T23:12:38.721Z,99.90
2019-05-20T23:15:08.174Z,99.90
2019-05-20T23:17:36.942Z,99.90
2019-05-20T23:20:09.073Z,99.90
2019-05-20T23:22:37.991Z,99.90
2019-05-20T23:25:06.707Z,99.90
2019-05-20T23:27:35.148Z,99.90
2019-05-20T23:30:05.218Z,99.90
2019-05-20T23:32:33.684Z,99.90
2019-05-20T23:35:02.442Z,99.90
2019-05-20T23:37:31.017Z,99.90
2019-05-20T23:39:59.469Z,99.90
2019-05-20T23:42:28.165Z,99.90
2019-05-20T23:44:56.619Z,99.90
2019-05-20T23:47:25.061Z,99.90
2019-05-20T23:49:53.777Z,99.90
2019-05-20T23:52:22.591Z,99.90
2019-05-20T23:54:51.414Z,99.90
2019-05-20T23:57:19.849Z,99.90
2019-05-20T23:59:48.306Z,99.90
